KHUL 162211Z AUTO 22008KT 10SM SCT027 SCT032 BKN080 M02/M05 A2969 RMK AO2 T10221050 TSNO